Terminal Aerodrome Forecast
Issued by NWS Spokane, WA

Home | Current Version | Previous Version | Text Only | Print | Product List | Glossary On
Versions: 1 2 3 4 5 6 7 8 9 10 11 12 13 14 15 16
393
FTUS46 KOTX 221739
TAFLWS
TAF
KLWS 221739Z 2218/2318 00000KT P6SM SCT090
     FM222200 30007KT P6SM VCTS SCT070CB BKN120
      TEMPO 2222/2302 VRB12G26KT OVC060CB
     FM230300 23005KT P6SM VCSH SCT070 BKN120
     FM230600 VRB03KT P6SM SCT100 SCT200=

USA.gov is the U.S. government's official web portal to all federal, state and local government web resources and services.